Time;durP1;ratioP1;P1;durP2;ratioP2;P2;SDS_P1;SDS_P2;PMS_P1;PMS_P2;Temp;Humidity;BMP_temperature;BMP_pressure;BME280_temperature;BME280_humidity;BME280_pressure;Samples;Min_cycle;Max_cycle;Signal;HPM_P1;HPM_P2
2021/12/13 00:00:27;;;;;;;14.77;7.85;;;11.30;99.90;;;;;;5006826;28;20101;-76
2021/12/13 00:02:57;;;;;;;20.20;7.70;;;11.30;99.90;;;;;;5007434;28;20415;-78
2021/12/13 00:05:34;;;;;;;19.20;9.35;;;11.40;99.90;;;;;;4998563;28;20092;-76
2021/12/13 00:08:04;;;;;;;16.52;8.02;;;11.40;99.90;;;;;;5013903;28;20430;-75
2021/12/13 00:10:45;;;;;;;22.38;8.18;;;11.40;99.90;;;;;;5001586;28;20030;-76
2021/12/13 00:13:20;;;;;;;24.88;8.60;;;11.30;99.90;;;;;;4997710;28;20026;-77
2021/12/13 00:16:00;;;;;;;15.98;7.00;;;11.30;99.90;;;;;;5000571;28;20057;-76
2021/12/13 00:18:34;;;;;;;26.60;7.90;;;11.30;99.90;;;;;;4992686;28;20480;-77
2021/12/13 00:21:08;;;;;;;13.65;6.95;;;11.30;99.90;;;;;;5007216;28;20057;-77
2021/12/13 00:23:48;;;;;;;27.20;8.02;;;11.30;99.90;;;;;;5013276;28;20132;-77
2021/12/13 00:26:27;;;;;;;22.35;8.05;;;11.30;99.90;;;;;;5008565;28;20057;-76
2021/12/13 00:28:53;;;;;;;21.15;8.05;;;11.20;99.90;;;;;;4996012;28;20030;-77
2021/12/13 00:31:54;;;;;;;17.40;7.60;;;11.20;99.90;;;;;;4995306;28;20033;-76
2021/12/13 00:34:26;;;;;;;15.68;7.47;;;11.10;99.90;;;;;;5000883;28;20045;-76
2021/12/13 00:36:58;;;;;;;21.88;6.80;;;11.10;99.90;;;;;;5012223;28;20397;-75
2021/12/13 00:39:29;;;;;;;13.88;5.45;;;11.10;99.90;;;;;;5006307;28;20026;-74
2021/12/13 00:41:56;;;;;;;23.73;6.15;;;11.10;99.90;;;;;;5001646;28;20029;-77
2021/12/13 00:44:39;;;;;;;11.98;6.47;;;11.00;99.90;;;;;;4983559;28;20052;-76
2021/12/13 00:47:10;;;;;;;12.75;6.15;;;11.00;99.90;;;;;;5005357;28;20034;-77
2021/12/13 00:49:40;;;;;;;12.30;6.13;;;10.90;99.90;;;;;;5002866;28;20021;-76
2021/12/13 00:52:06;;;;;;;10.65;6.07;;;10.90;99.90;;;;;;5003868;28;20109;-74
2021/12/13 00:54:38;;;;;;;11.25;5.50;;;10.90;99.90;;;;;;5008662;28;20026;-75
2021/12/13 00:57:10;;;;;;;15.38;5.55;;;10.90;99.90;;;;;;4985944;28;20188;-76
2021/12/13 00:59:39;;;;;;;10.88;5.30;;;10.90;99.90;;;;;;5005029;28;20033;-77
2021/12/13 01:02:26;;;;;;;11.13;4.47;;;10.90;99.90;;;;;;5006107;28;20041;-77
2021/12/13 01:04:51;;;;;;;10.45;5.25;;;10.90;99.90;;;;;;5001396;28;20483;-77
2021/12/13 01:07:32;;;;;;;12.38;5.05;;;10.90;99.90;;;;;;5007602;28;20095;-77
2021/12/13 01:10:35;;;;;;;9.80;5.35;;;10.90;99.90;;;;;;5004770;28;20030;-76
2021/12/13 01:13:02;;;;;;;9.80;4.78;;;10.90;99.90;;;;;;5001444;28;20033;-77
2021/12/13 01:15:39;;;;;;;10.43;4.20;;;10.90;99.90;;;;;;5004463;28;20022;-74
2021/12/13 01:18:29;;;;;;;9.50;4.40;;;11.00;99.90;;;;;;4987070;28;20276;-74
2021/12/13 01:21:08;;;;;;;14.98;5.25;;;10.90;99.90;;;;;;5005591;28;20719;-76
2021/12/13 01:26:28;;;;;;;8.02;4.35;;;10.80;99.90;;;;;;5003729;28;20034;-76
2021/12/13 01:29:00;;;;;;;9.98;4.80;;;10.80;99.90;;;;;;5009911;28;20379;-76
2021/12/13 01:31:36;;;;;;;5.65;3.90;;;10.80;99.90;;;;;;5012673;28;20025;-76
2021/12/13 01:34:04;;;;;;;6.85;3.92;;;10.80;99.90;;;;;;4997661;28;20046;-76
2021/12/13 01:36:42;;;;;;;;;;;10.80;99.90;;;;;;4994622;28;20033;-77
2021/12/13 01:39:16;;;;;;;9.65;3.40;;;10.80;99.90;;;;;;5009497;28;20370;-77
2021/12/13 01:41:45;;;;;;;5.25;3.17;;;10.80;99.90;;;;;;5012812;28;20038;-76
2021/12/13 01:44:27;;;;;;;8.82;4.07;;;10.80;99.90;;;;;;4993527;28;20022;-76
2021/12/13 01:46:57;;;;;;;5.63;3.20;;;10.70;99.90;;;;;;4996981;28;20022;-75
2021/12/13 01:49:32;;;;;;;6.70;3.30;;;10.80;99.90;;;;;;5008770;28;20030;-75
2021/12/13 01:51:59;;;;;;;5.78;3.17;;;10.80;99.90;;;;;;4988789;28;20030;-76
2021/12/13 01:54:28;;;;;;;6.75;3.50;;;10.80;99.90;;;;;;5012156;28;20049;-76
2021/12/13 01:57:21;;;;;;;12.00;3.42;;;10.80;99.90;;;;;;5015830;28;20037;-77
2021/12/13 02:00:07;;;;;;;6.45;2.50;;;10.80;99.90;;;;;;4992696;28;21510;-78
2021/12/13 02:02:38;;;;;;;5.97;2.42;;;10.80;99.90;;;;;;5004911;28;20030;-78
2021/12/13 02:05:23;;;;;;;12.27;2.90;;;10.70;99.90;;;;;;4997607;28;20427;-78
2021/12/13 02:08:06;;;;;;;10.88;2.85;;;10.70;99.90;;;;;;5008378;28;20156;-80
2021/12/13 02:10:43;;;;;;;4.05;2.60;;;10.70;99.90;;;;;;4997009;28;20026;-79
2021/12/13 02:13:20;;;;;;;7.57;2.65;;;10.70;99.90;;;;;;5004089;28;20479;-79
2021/12/13 02:18:37;;;;;;;4.93;3.03;;;10.70;99.90;;;;;;4997822;28;20399;-77
2021/12/13 02:21:23;;;;;;;5.28;2.90;;;10.80;99.90;;;;;;4979571;28;20116;-79
2021/12/13 02:23:51;;;;;;;7.45;3.33;;;10.80;99.90;;;;;;4996284;28;20050;-79
2021/12/13 02:26:18;;;;;;;9.07;3.42;;;10.80;99.90;;;;;;4998140;28;20062;-79
2021/12/13 02:28:48;;;;;;;8.57;3.72;;;10.80;99.90;;;;;;5011450;28;20029;-79
2021/12/13 02:31:21;;;;;;;5.95;4.13;;;10.70;99.90;;;;;;4989401;28;20109;-78
2021/12/13 02:33:57;;;;;;;9.73;4.03;;;10.80;99.90;;;;;;5013950;28;20540;-79
2021/12/13 02:36:34;;;;;;;7.82;3.75;;;10.70;99.90;;;;;;5015439;28;20026;-79
2021/12/13 02:39:23;;;;;;;11.52;4.88;;;10.70;99.90;;;;;;4998547;28;20033;-80
2021/12/13 02:41:49;;;;;;;9.23;4.53;;;10.80;99.90;;;;;;5012124;28;20042;-78
2021/12/13 02:44:30;;;;;;;7.30;5.03;;;10.80;99.90;;;;;;5001469;28;20026;-80
2021/12/13 02:47:05;;;;;;;10.52;5.65;;;10.70;99.90;;;;;;5003176;28;20030;-79
2021/12/13 02:49:32;;;;;;;13.38;5.75;;;10.70;99.90;;;;;;5034139;28;20037;-79
2021/12/13 02:52:03;;;;;;;10.60;6.03;;;10.80;99.90;;;;;;5021477;28;20104;-80
2021/12/13 02:54:37;;;;;;;9.13;5.85;;;10.80;99.90;;;;;;5020399;28;20041;-79
2021/12/13 02:57:26;;;;;;;14.98;7.20;;;10.70;99.90;;;;;;5039365;28;20029;-77
2021/12/13 03:00:14;;;;;;;17.20;6.57;;;10.70;99.90;;;;;;5019161;28;20021;-75
2021/12/13 03:02:43;;;;;;;16.65;7.03;;;10.70;99.90;;;;;;5014488;28;20033;-77
2021/12/13 03:05:14;;;;;;;15.65;7.15;;;10.70;99.90;;;;;;5031679;28;20056;-77
2021/12/13 03:07:45;;;;;;;14.30;7.03;;;10.70;99.90;;;;;;5022117;28;20046;-75
2021/12/13 03:10:18;;;;;;;11.95;7.43;;;10.80;99.90;;;;;;5041168;28;20090;-77
2021/12/13 03:12:44;;;;;;;13.23;7.30;;;10.70;99.90;;;;;;5021475;28;20041;-75
2021/12/13 03:15:14;;;;;;;13.70;7.45;;;10.70;99.90;;;;;;5024867;28;20037;-79
2021/12/13 03:17:56;;;;;;;14.77;8.25;;;10.80;99.90;;;;;;5025721;28;20056;-76
2021/12/13 03:20:43;;;;;;;15.90;8.13;;;10.70;99.90;;;;;;5019178;28;20022;-76
2021/12/13 03:23:33;;;;;;;14.90;7.53;;;10.70;99.90;;;;;;5034649;28;20042;-74
2021/12/13 03:26:36;;;;;;;15.77;7.88;;;10.80;99.90;;;;;;5055402;28;20020;-79
2021/12/13 03:29:13;;;;;;;14.13;7.85;;;10.80;99.90;;;;;;5023949;28;20003;-76
2021/12/13 03:31:42;;;;;;;;;;;10.80;99.90;;;;;;5039937;28;20021;-77
2021/12/13 03:34:16;;;;;;;16.20;8.50;;;10.80;99.90;;;;;;5036458;28;19920;-80
2021/12/13 03:36:55;;;;;;;15.77;8.25;;;10.80;99.90;;;;;;5010973;28;20503;-79
2021/12/13 03:39:27;;;;;;;15.52;8.38;;;10.80;99.90;;;;;;5038018;28;20022;-79
2021/12/13 03:41:56;;;;;;;14.38;7.55;;;10.80;99.90;;;;;;5040798;28;20040;-78
2021/12/13 03:44:29;;;;;;;14.80;9.05;;;10.80;99.90;;;;;;5021496;28;20018;-79
2021/12/13 03:47:07;;;;;;;13.70;7.97;;;10.80;99.90;;;;;;5049003;28;20021;-78
2021/12/13 03:49:39;;;;;;;11.38;7.57;;;10.80;99.90;;;;;;5045739;28;20081;-76
2021/12/13 03:52:06;;;;;;;13.05;7.60;;;10.80;99.90;;;;;;5047023;28;20014;-76
2021/12/13 03:54:36;;;;;;;19.42;7.70;;;10.90;99.90;;;;;;5040450;28;20030;-78
2021/12/13 03:57:03;;;;;;;13.10;8.30;;;10.90;99.90;;;;;;5039765;28;20044;-77
2021/12/13 03:59:33;;;;;;;15.63;7.55;;;10.90;99.90;;;;;;5030877;28;20052;-79
2021/12/13 04:02:04;;;;;;;14.60;7.25;;;10.80;99.90;;;;;;5043687;28;20085;-79
2021/12/13 04:04:40;;;;;;;11.30;6.72;;;10.90;99.90;;;;;;5055220;28;20013;-78
2021/12/13 04:07:30;;;;;;;16.85;8.40;;;10.90;99.90;;;;;;5028201;28;20049;-75
2021/12/13 04:09:58;;;;;;;13.32;7.32;;;10.80;99.90;;;;;;5022502;28;20030;-76
2021/12/13 04:12:36;;;;;;;13.88;8.25;;;10.80;99.90;;;;;;5039327;28;20025;-75
2021/12/13 04:15:12;;;;;;;;;;;10.90;99.90;;;;;;5052164;28;20011;-77
2021/12/13 04:17:56;;;;;;;13.57;7.72;;;10.80;99.90;;;;;;5044883;28;19935;-78
2021/12/13 04:20:34;;;;;;;13.80;8.30;;;10.80;99.90;;;;;;5048543;28;20022;-77
2021/12/13 04:23:25;;;;;;;15.70;7.57;;;10.90;99.90;;;;;;5053738;28;20056;-76
2021/12/13 04:25:52;;;;;;;17.08;7.65;;;10.90;99.90;;;;;;5046912;28;20002;-77
2021/12/13 04:28:25;;;;;;;15.48;7.88;;;10.80;99.90;;;;;;5054592;28;20029;-77
2021/12/13 04:30:57;;;;;;;25.13;7.55;;;10.80;99.90;;;;;;5044375;28;20066;-77
2021/12/13 04:33:45;;;;;;;14.10;7.50;;;10.80;99.90;;;;;;5036889;28;20017;-77
2021/12/13 04:36:11;;;;;;;;;;;10.80;99.90;;;;;;5011815;28;20030;-79
2021/12/13 04:38:50;;;;;;;14.20;7.25;;;10.80;99.90;;;;;;5025897;28;19913;-76
2021/12/13 04:41:42;;;;;;;12.50;7.78;;;10.80;99.90;;;;;;5030414;28;20109;-79
2021/12/13 04:44:36;;;;;;;12.93;6.82;;;10.80;99.90;;;;;;5027096;28;20037;-77
2021/12/13 04:47:13;;;;;;;14.77;8.18;;;10.70;99.90;;;;;;5016052;28;20040;-77
2021/12/13 04:49:50;;;;;;;12.30;7.53;;;10.70;99.90;;;;;;4995728;28;20030;-79
2021/12/13 04:52:18;;;;;;;11.35;7.30;;;10.70;99.90;;;;;;5015542;28;20034;-77
2021/12/13 04:54:48;;;;;;;17.33;8.10;;;10.70;99.90;;;;;;5015091;28;20034;-78
2021/12/13 04:57:15;;;;;;;12.73;7.75;;;10.70;99.90;;;;;;5018000;28;20555;-78
2021/12/13 04:59:47;;;;;;;15.97;7.80;;;10.80;99.90;;;;;;5014707;28;20410;-78
2021/12/13 05:02:13;;;;;;;14.70;7.55;;;10.70;99.90;;;;;;5002523;28;20060;-78
2021/12/13 05:04:39;;;;;;;10.48;6.93;;;10.70;99.90;;;;;;5023873;28;20025;-78
2021/12/13 05:07:06;;;;;;;12.38;6.90;;;10.70;99.90;;;;;;5022581;28;20049;-77
2021/12/13 05:09:32;;;;;;;14.88;7.53;;;10.70;99.90;;;;;;5028758;28;20033;-77
2021/12/13 05:12:01;;;;;;;14.57;6.75;;;10.70;99.90;;;;;;5027600;28;20505;-79
2021/12/13 05:14:32;;;;;;;14.00;8.20;;;10.70;99.90;;;;;;5013266;28;20034;-78
2021/12/13 05:17:05;;;;;;;12.30;7.43;;;10.70;99.90;;;;;;5012823;28;20498;-79
2021/12/13 05:19:34;;;;;;;10.43;6.90;;;10.70;99.90;;;;;;5027255;28;20479;-79
2021/12/13 05:22:02;;;;;;;10.77;6.80;;;10.80;99.90;;;;;;5016137;28;20367;-78
2021/12/13 05:24:32;;;;;;;12.48;7.03;;;10.80;99.90;;;;;;5013025;28;20376;-79
2021/12/13 05:27:07;;;;;;;14.30;7.22;;;10.80;99.90;;;;;;5012453;28;20156;-79
2021/12/13 05:29:35;;;;;;;13.55;7.07;;;10.80;99.90;;;;;;5013797;28;20098;-78
2021/12/13 05:32:07;;;;;;;9.65;6.78;;;10.70;99.90;;;;;;5019148;28;20071;-80
2021/12/13 05:35:08;;;;;;;15.93;7.82;;;10.70;99.90;;;;;;5020033;28;20034;-79
2021/12/13 05:37:47;;;;;;;13.93;7.00;;;10.70;99.90;;;;;;5006715;28;20042;-78
2021/12/13 05:40:18;;;;;;;13.90;6.80;;;10.70;99.90;;;;;;5017122;28;20065;-78
2021/12/13 05:42:51;;;;;;;13.10;6.57;;;10.70;99.90;;;;;;5019493;28;20171;-78
2021/12/13 05:45:35;;;;;;;18.20;7.78;;;10.70;99.90;;;;;;5030359;28;20543;-77
2021/12/13 05:48:03;;;;;;;14.23;7.28;;;10.80;99.90;;;;;;5025142;28;20037;-78
2021/12/13 05:50:43;;;;;;;11.45;6.15;;;10.70;99.90;;;;;;5030835;28;20017;-78
2021/12/13 05:53:13;;;;;;;19.48;7.40;;;10.70;99.90;;;;;;5012270;28;20030;-78
2021/12/13 05:55:52;;;;;;;10.80;7.15;;;10.60;99.90;;;;;;4994749;28;20034;-77
2021/12/13 05:58:31;;;;;;;13.73;7.22;;;10.60;99.90;;;;;;5014101;28;20532;-79
2021/12/13 06:00:59;;;;;;;12.95;7.20;;;10.60;99.90;;;;;;5014030;28;20034;-79
2021/12/13 06:03:33;;;;;;;19.88;8.38;;;10.70;99.90;;;;;;5011623;28;20121;-78
2021/12/13 06:06:07;;;;;;;12.60;7.10;;;10.80;99.90;;;;;;5016663;28;20044;-78
2021/12/13 06:08:43;;;;;;;10.85;6.75;;;10.70;99.90;;;;;;4997260;28;20029;-78
2021/12/13 06:11:13;;;;;;;16.33;6.68;;;10.70;99.90;;;;;;5005422;28;20025;-77
2021/12/13 06:13:48;;;;;;;14.27;7.78;;;10.70;99.90;;;;;;5027116;28;20466;-79
2021/12/13 06:16:17;;;;;;;15.55;7.30;;;10.70;99.90;;;;;;5017720;28;20368;-79
2021/12/13 06:19:01;;;;;;;12.48;7.78;;;10.80;99.90;;;;;;5014830;28;20033;-79
2021/12/13 06:21:47;;;;;;;12.10;7.03;;;10.80;99.90;;;;;;5004685;28;20045;-78
2021/12/13 06:24:13;;;;;;;18.90;7.13;;;10.70;99.90;;;;;;5015778;28;20543;-79
2021/12/13 06:26:40;;;;;;;18.13;7.53;;;10.70;99.90;;;;;;5016542;28;20028;-76
2021/12/13 06:29:08;;;;;;;14.55;7.47;;;10.70;99.90;;;;;;4996994;28;20100;-77
2021/12/13 06:31:43;;;;;;;13.82;7.70;;;10.70;99.90;;;;;;5023252;28;20056;-78
2021/12/13 06:34:12;;;;;;;14.05;7.25;;;10.70;99.90;;;;;;5016885;28;20387;-78
2021/12/13 06:36:52;;;;;;;15.38;7.55;;;10.70;99.90;;;;;;5016236;28;20018;-77
2021/12/13 06:39:29;;;;;;;10.45;7.00;;;10.70;99.90;;;;;;5019923;28;20033;-79
2021/12/13 06:42:05;;;;;;;14.40;7.43;;;10.70;99.90;;;;;;5023224;28;20026;-78
2021/12/13 06:45:00;;;;;;;13.25;8.07;;;10.70;99.90;;;;;;5000132;28;20030;-78
2021/12/13 06:47:26;;;;;;;10.10;7.07;;;10.70;99.90;;;;;;5001910;28;20037;-78
2021/12/13 06:49:57;;;;;;;15.25;7.78;;;10.70;99.90;;;;;;5017361;28;20056;-78
2021/12/13 06:52:32;;;;;;;13.73;7.90;;;10.70;99.90;;;;;;5031716;28;20497;-78
2021/12/13 06:55:15;;;;;;;14.98;7.55;;;10.70;99.90;;;;;;5011897;28;20422;-78
2021/12/13 06:57:50;;;;;;;25.42;8.73;;;10.70;99.90;;;;;;5015816;28;20040;-78
2021/12/13 07:00:26;;;;;;;14.93;7.95;;;10.70;99.90;;;;;;4994677;28;20030;-78
2021/12/13 07:03:08;;;;;;;21.20;10.07;;;10.60;99.90;;;;;;5006609;28;20050;-78
2021/12/13 07:05:41;;;;;;;20.35;9.48;;;10.60;99.90;;;;;;4994779;28;20045;-79
2021/12/13 07:08:11;;;;;;;18.67;9.75;;;10.60;99.90;;;;;;4981185;28;20037;-78
2021/12/13 07:10:46;;;;;;;21.33;9.80;;;10.60;99.90;;;;;;4996473;28;20038;-78
2021/12/13 07:13:50;;;;;;;18.10;9.32;;;10.60;99.90;;;;;;4979433;28;20042;-78
2021/12/13 07:16:22;;;;;;;23.55;9.32;;;10.60;99.90;;;;;;4958209;28;20035;-78
2021/12/13 07:18:54;;;;;;;21.75;10.63;;;10.70;99.90;;;;;;4994849;28;20065;-79
2021/12/13 07:21:25;;;;;;;26.98;10.85;;;10.70;99.90;;;;;;5010187;28;20022;-78
2021/12/13 07:24:06;;;;;;;30.83;11.27;;;10.60;99.90;;;;;;4997861;28;20030;-78
2021/12/13 07:26:53;;;;;;;22.83;10.90;;;10.60;99.90;;;;;;4996582;28;20026;-78
2021/12/13 07:29:18;;;;;;;25.35;10.68;;;10.60;99.90;;;;;;5001493;28;20058;-78
2021/12/13 07:32:00;;;;;;;37.15;12.07;;;10.70;99.90;;;;;;4995199;28;20030;-78
2021/12/13 07:34:26;;;;;;;26.02;11.13;;;10.70;99.90;;;;;;4996226;28;20217;-78
2021/12/13 07:36:56;;;;;;;27.08;12.35;;;10.70;99.90;;;;;;4997485;28;20439;-79
2021/12/13 07:39:26;;;;;;;32.92;12.32;;;10.70;99.90;;;;;;4997895;28;20120;-79
2021/12/13 07:41:57;;;;;;;23.52;10.45;;;10.70;99.90;;;;;;5015143;28;20084;-79
2021/12/13 07:44:42;;;;;;;27.55;10.95;;;10.70;99.90;;;;;;5022930;28;20025;-79
2021/12/13 07:47:20;;;;;;;22.80;12.18;;;10.70;99.90;;;;;;5014941;28;20367;-77
2021/12/13 07:49:55;;;;;;;25.83;12.00;;;10.70;99.90;;;;;;5031678;28;20021;-80
2021/12/13 07:52:31;;;;;;;25.65;12.27;;;10.70;99.90;;;;;;5033294;28;20033;-78
2021/12/13 07:55:12;;;;;;;28.60;12.13;;;10.70;99.90;;;;;;4999307;28;20120;-78
2021/12/13 07:57:38;;;;;;;21.75;11.32;;;10.70;99.90;;;;;;5020170;28;20026;-79
2021/12/13 08:00:20;;;;;;;25.00;11.68;;;10.70;99.90;;;;;;4995626;28;20093;-79
2021/12/13 08:03:16;;;;;;;23.75;10.95;;;10.70;99.90;;;;;;5013251;28;20030;-79
2021/12/13 08:05:51;;;;;;;28.08;10.65;;;10.60;99.90;;;;;;5014690;28;20398;-80
2021/12/13 08:08:26;;;;;;;23.70;11.50;;;10.70;99.90;;;;;;5013765;28;20030;-78
2021/12/13 08:10:57;;;;;;;21.52;10.35;;;10.70;99.90;;;;;;4983249;28;20057;-80
2021/12/13 08:13:28;;;;;;;26.02;13.10;;;10.70;99.90;;;;;;4999345;28;20096;-79
2021/12/13 08:16:02;;;;;;;24.23;10.85;;;10.70;99.90;;;;;;5014090;28;20053;-79
2021/12/13 08:18:40;;;;;;;25.60;11.07;;;10.70;99.90;;;;;;5006813;28;20025;-79
2021/12/13 08:21:17;;;;;;;32.53;11.93;;;10.60;99.90;;;;;;5007354;28;20057;-77
2021/12/13 08:24:03;;;;;;;24.13;10.80;;;10.70;99.90;;;;;;4993054;28;20105;-79
2021/12/13 08:26:29;;;;;;;26.13;10.88;;;10.70;99.90;;;;;;4996435;28;20035;-78
2021/12/13 08:31:43;;;;;;;28.15;11.65;;;10.70;99.90;;;;;;5009623;28;20122;-78
2021/12/13 08:34:22;;;;;;;22.90;10.00;;;10.60;99.90;;;;;;5005095;28;20073;-78
2021/12/13 08:36:48;;;;;;;28.65;10.02;;;10.60;99.90;;;;;;5010901;28;20029;-79
2021/12/13 08:39:17;;;;;;;29.40;11.10;;;10.60;99.90;;;;;;4996029;28;20022;-78
2021/12/13 08:41:50;;;;;;;20.15;10.55;;;10.60;99.90;;;;;;4997602;28;20440;-79
2021/12/13 08:44:23;;;;;;;29.60;12.15;;;10.70;99.90;;;;;;5010760;28;20497;-79
2021/12/13 08:46:51;;;;;;;25.08;11.45;;;10.60;99.90;;;;;;4992015;28;20144;-79
2021/12/13 08:49:19;;;;;;;26.75;10.35;;;10.60;99.90;;;;;;5004261;28;20030;-79
2021/12/13 08:51:53;;;;;;;24.90;11.60;;;10.60;99.90;;;;;;4997568;28;20037;-79
2021/12/13 08:54:21;;;;;;;26.15;11.05;;;10.60;99.90;;;;;;4996430;28;20026;-79
2021/12/13 08:56:50;;;;;;;23.40;11.60;;;10.60;99.90;;;;;;4995193;28;20399;-80
2021/12/13 08:59:27;;;;;;;22.35;11.38;;;10.60;99.90;;;;;;4998393;28;20475;-79
2021/12/13 09:05:10;;;;;;;28.02;10.10;;;10.60;99.90;;;;;;5013286;28;20037;-79
2021/12/13 09:07:53;;;;;;;21.08;10.73;;;10.70;99.90;;;;;;5003039;28;20506;-78
2021/12/13 09:10:20;;;;;;;23.67;11.15;;;10.70;99.90;;;;;;4989264;28;20439;-79
2021/12/13 09:12:47;;;;;;;22.80;9.48;;;10.70;99.90;;;;;;4993740;28;20113;-79
2021/12/13 09:15:24;;;;;;;21.85;9.70;;;10.70;99.90;;;;;;5009508;28;20026;-79
2021/12/13 09:17:51;;;;;;;25.92;10.43;;;10.70;99.90;;;;;;5003130;28;20022;-79
2021/12/13 09:20:23;;;;;;;26.65;11.65;;;10.70;99.90;;;;;;4995077;28;20458;-79
2021/12/13 09:23:23;;;;;;;29.13;10.32;;;10.70;99.90;;;;;;5013000;28;20464;-79
2021/12/13 09:26:07;;;;;;;17.10;9.43;;;10.80;99.90;;;;;;4985220;28;20034;-79
2021/12/13 09:28:37;;;;;;;17.88;8.55;;;10.80;99.90;;;;;;4976958;28;20034;-79
2021/12/13 09:31:08;;;;;;;29.25;10.48;;;10.80;99.90;;;;;;5002347;28;20097;-80
2021/12/13 09:33:53;;;;;;;26.20;10.20;;;10.90;99.90;;;;;;5013362;28;20034;-79
2021/12/13 09:36:29;;;;;;;28.85;12.05;;;11.00;99.90;;;;;;5013059;28;20080;-80
2021/12/13 09:39:06;;;;;;;17.20;8.43;;;11.00;99.90;;;;;;5013357;28;20045;-79
2021/12/13 09:41:53;;;;;;;29.23;10.03;;;11.00;99.90;;;;;;4990514;28;20044;-79
2021/12/13 09:44:51;;;;;;;23.25;9.32;;;11.00;99.90;;;;;;4995498;28;20272;-79
2021/12/13 09:47:21;;;;;;;;;;;11.10;99.90;;;;;;5005285;28;20049;-79
2021/12/13 09:49:56;;;;;;;17.33;8.88;;;11.10;99.90;;;;;;4985829;28;19909;-80
2021/12/13 09:52:30;;;;;;;18.10;9.05;;;11.10;99.90;;;;;;5002068;28;20034;-78
2021/12/13 09:55:05;;;;;;;20.50;8.38;;;11.10;99.90;;;;;;5012592;28;20037;-79
2021/12/13 09:57:52;;;;;;;20.55;8.82;;;11.20;99.90;;;;;;4993175;28;20034;-78
2021/12/13 10:00:38;;;;;;;15.17;9.93;;;11.20;99.90;;;;;;4999393;28;20431;-78
2021/12/13 10:03:10;;;;;;;24.08;9.05;;;11.20;99.90;;;;;;5016329;28;20037;-77
2021/12/13 10:05:40;;;;;;;20.77;7.88;;;11.20;99.90;;;;;;4992220;28;20030;-77
2021/12/13 10:08:11;;;;;;;16.65;8.65;;;11.30;99.90;;;;;;5008812;28;20037;-79
2021/12/13 10:10:45;;;;;;;17.33;8.57;;;11.30;99.90;;;;;;5009876;28;20050;-77
2021/12/13 10:13:18;;;;;;;16.42;8.25;;;11.30;99.90;;;;;;5006526;28;20077;-78
2021/12/13 10:15:49;;;;;;;16.20;8.38;;;11.30;99.90;;;;;;4998705;28;20127;-78
2021/12/13 10:18:24;;;;;;;22.77;7.80;;;11.30;99.90;;;;;;4996693;28;20030;-79
2021/12/13 10:21:01;;;;;;;18.58;7.97;;;11.30;99.90;;;;;;5014403;28;20030;-79
2021/12/13 10:23:31;;;;;;;16.75;7.80;;;11.40;99.90;;;;;;4991393;28;20034;-78
2021/12/13 10:26:00;;;;;;;13.65;7.10;;;11.40;99.90;;;;;;4997306;28;20037;-78
2021/12/13 10:28:30;;;;;;;15.30;7.95;;;11.40;99.90;;;;;;5009668;28;20157;-78
2021/12/13 10:31:05;;;;;;;22.42;9.25;;;11.40;99.90;;;;;;4988886;28;20368;-77
2021/12/13 10:33:34;;;;;;;17.60;8.05;;;11.40;99.90;;;;;;5007884;28;20116;-77
2021/12/13 10:36:02;;;;;;;18.40;7.93;;;11.40;99.90;;;;;;5014096;28;20064;-78
2021/12/13 10:38:35;;;;;;;15.20;8.43;;;11.40;99.90;;;;;;5028938;28;20037;-78
2021/12/13 10:41:08;;;;;;;21.15;7.97;;;11.40;99.90;;;;;;4990265;28;20041;-76
2021/12/13 10:43:40;;;;;;;17.83;8.43;;;11.40;99.90;;;;;;5000240;28;20411;-78
2021/12/13 10:46:12;;;;;;;23.77;8.88;;;11.50;99.90;;;;;;4993099;28;20071;-78
2021/12/13 10:48:45;;;;;;;20.98;8.00;;;11.60;99.90;;;;;;4990476;28;20042;-79
2021/12/13 10:51:20;;;;;;;13.48;7.50;;;11.60;99.90;;;;;;5008889;28;20523;-79
2021/12/13 10:53:48;;;;;;;18.23;7.25;;;11.70;99.90;;;;;;5009211;28;20284;-78
2021/12/13 10:56:20;;;;;;;16.73;7.30;;;11.50;99.90;;;;;;5007996;28;20045;-78
2021/12/13 10:58:49;;;;;;;20.08;8.73;;;11.60;99.90;;;;;;4995383;28;20037;-79
2021/12/13 11:01:28;;;;;;;21.70;8.20;;;11.60;99.90;;;;;;4995392;28;20048;-79
2021/12/13 11:03:56;;;;;;;26.05;8.63;;;11.70;99.90;;;;;;4996426;28;20117;-80
2021/12/13 11:06:22;;;;;;;25.08;9.00;;;11.70;99.90;;;;;;4995667;28;20037;-78
2021/12/13 11:08:50;;;;;;;19.00;7.75;;;11.70;99.90;;;;;;4996272;28;20018;-78
2021/12/13 11:11:22;;;;;;;24.95;8.35;;;11.70;99.90;;;;;;4997701;28;20506;-80
2021/12/13 11:13:52;;;;;;;18.95;8.02;;;11.70;99.90;;;;;;5012674;28;20100;-78
2021/12/13 11:16:29;;;;;;;20.42;7.30;;;11.80;99.90;;;;;;5020259;28;20030;-79
2021/12/13 11:18:56;;;;;;;17.42;6.18;;;11.80;99.90;;;;;;4999821;28;20089;-78
2021/12/13 11:21:26;;;;;;;18.85;8.27;;;11.80;99.90;;;;;;5011187;28;20061;-79
2021/12/13 11:23:54;;;;;;;19.25;6.75;;;11.70;99.90;;;;;;4995931;28;20044;-80
2021/12/13 11:26:24;;;;;;;8.90;4.53;;;11.70;99.90;;;;;;4985479;28;20116;-78
2021/12/13 11:28:51;;;;;;;18.40;8.02;;;11.70;99.90;;;;;;4996536;28;20044;-78
2021/12/13 11:32:06;;;;;;;18.35;7.05;;;11.60;99.90;;;;;;5010197;28;20030;-78
2021/12/13 11:35:03;;;;;;;15.65;6.57;;;11.70;99.90;;;;;;5009941;28;20030;-77
2021/12/13 11:37:53;;;;;;;17.42;6.55;;;11.70;99.90;;;;;;5011158;28;20109;-80
2021/12/13 11:40:31;;;;;;;18.42;7.10;;;11.70;99.90;;;;;;5010566;28;20041;-79
2021/12/13 11:43:36;;;;;;;14.70;6.45;;;11.70;99.90;;;;;;5008877;28;20034;-78
2021/12/13 11:46:09;;;;;;;13.68;5.88;;;11.70;99.90;;;;;;4935623;29;20024;-77
2021/12/13 11:49:12;;;;;;;18.92;6.95;;;11.70;99.90;;;;;;5002425;28;20281;-78
2021/12/13 11:51:55;;;;;;;18.52;7.15;;;11.70;99.90;;;;;;5017892;28;20026;-79
2021/12/13 11:54:46;;;;;;;16.45;7.43;;;11.70;99.90;;;;;;4997996;28;20475;-79
2021/12/13 11:57:23;;;;;;;17.70;6.95;;;11.70;99.90;;;;;;5010755;28;20406;-79
2021/12/13 12:00:26;;;;;;;17.27;6.93;;;11.70;99.90;;;;;;5014381;28;20494;-78
2021/12/13 12:03:30;;;;;;;15.45;6.15;;;11.70;99.90;;;;;;5008440;28;20402;-77
2021/12/13 12:06:27;;;;;;;20.80;7.75;;;11.70;99.90;;;;;;5005585;28;20088;-79
2021/12/13 12:09:32;;;;;;;16.45;6.03;;;11.70;99.90;;;;;;5007232;28;20034;-79
2021/12/13 12:12:19;;;;;;;15.65;5.88;;;11.60;99.90;;;;;;5010981;28;20091;-77
2021/12/13 12:14:49;;;;;;;17.85;5.65;;;11.60;99.90;;;;;;5011607;28;20053;-77
2021/12/13 12:17:16;;;;;;;17.45;6.88;;;11.70;99.90;;;;;;5012901;28;20033;-76
2021/12/13 12:19:42;;;;;;;17.10;7.10;;;11.70;99.90;;;;;;5009495;28;20022;-79
2021/12/13 12:22:13;;;;;;;18.00;6.75;;;11.70;99.90;;;;;;4991362;28;20704;-76
2021/12/13 12:24:50;;;;;;;13.10;6.20;;;11.70;99.90;;;;;;5008847;28;20029;-78
2021/12/13 12:27:36;;;;;;;14.52;6.63;;;11.60;99.90;;;;;;5007661;28;20044;-78
2021/12/13 12:30:08;;;;;;;14.90;6.38;;;11.70;99.90;;;;;;4988990;28;20045;-79
2021/12/13 12:32:38;;;;;;;13.05;5.80;;;11.70;99.90;;;;;;5013122;28;20045;-80
2021/12/13 12:35:11;;;;;;;10.40;4.82;;;11.70;99.90;;;;;;5012620;28;20088;-79
2021/12/13 12:38:02;;;;;;;14.57;5.82;;;11.80;99.90;;;;;;5012437;28;20148;-78
2021/12/13 12:40:45;;;;;;;10.85;6.25;;;11.80;99.90;;;;;;4995490;28;20033;-77
2021/12/13 12:43:15;;;;;;;25.90;6.22;;;11.70;99.90;;;;;;4995914;28;20081;-78
2021/12/13 12:45:53;;;;;;;12.88;5.50;;;11.70;99.90;;;;;;5011883;28;20053;-78
2021/12/13 12:48:47;;;;;;;14.15;6.82;;;11.70;99.90;;;;;;4992614;28;20029;-78
2021/12/13 12:51:19;;;;;;;12.25;6.13;;;11.80;99.90;;;;;;5009518;28;20046;-77
2021/12/13 12:53:50;;;;;;;10.75;6.45;;;11.70;99.90;;;;;;5007838;28;20041;-78
2021/12/13 12:56:25;;;;;;;11.93;5.68;;;11.70;99.90;;;;;;5013210;28;20033;-79
2021/12/13 12:58:53;;;;;;;13.30;6.03;;;11.70;99.90;;;;;;5013514;28;20034;-79
2021/12/13 13:01:42;;;;;;;10.57;6.05;;;11.70;99.90;;;;;;4995330;28;20037;-77
2021/12/13 13:04:13;;;;;;;19.15;6.43;;;11.70;99.90;;;;;;4998405;28;20064;-79
2021/12/13 13:07:03;;;;;;;13.93;5.93;;;11.70;99.90;;;;;;5011440;28;20136;-79
2021/12/13 13:10:00;;;;;;;14.75;6.38;;;11.70;99.90;;;;;;5011802;28;20026;-80
2021/12/13 13:12:29;;;;;;;12.60;5.53;;;11.70;99.90;;;;;;5007530;28;20537;-78
2021/12/13 13:15:09;;;;;;;12.85;6.38;;;11.70;99.90;;;;;;5006604;28;20075;-76
2021/12/13 13:17:41;;;;;;;11.85;5.57;;;11.70;99.90;;;;;;4993449;28;20487;-79
2021/12/13 13:20:21;;;;;;;13.60;5.63;;;11.70;99.90;;;;;;4989178;28;20026;-78
2021/12/13 13:22:50;;;;;;;9.93;5.82;;;11.80;99.90;;;;;;5005235;28;20038;-77
2021/12/13 13:25:21;;;;;;;16.25;5.97;;;11.80;99.90;;;;;;5011223;28;20037;-79
2021/12/13 13:27:48;;;;;;;15.50;6.22;;;11.70;99.90;;;;;;5002388;28;20164;-79
2021/12/13 13:30:26;;;;;;;13.23;6.43;;;11.50;99.90;;;;;;5028897;28;20033;-78
2021/12/13 13:32:52;;;;;;;9.90;5.80;;;11.50;99.90;;;;;;4999312;28;20037;-79